createdAt,value
2022-11-02T00:00:30.254Z,14.00
2022-11-02T00:01:42.472Z,20.06
2022-11-02T00:02:46.616Z,19.37
2022-11-02T00:03:50.702Z,20.81
2022-11-02T00:04:54.586Z,17.81
2022-11-02T00:06:01.135Z,18.25
2022-11-02T00:07:05.034Z,15.44
2022-11-02T00:08:10.543Z,19.94
2022-11-02T00:09:16.316Z,19.62
2022-11-02T00:10:25.077Z,20.00
2022-11-02T00:11:29.038Z,18.62
2022-11-02T00:12:32.987Z,20.56
2022-11-02T00:13:38.898Z,20.62
2022-11-02T00:14:42.663Z,19.81
2022-11-02T00:15:46.601Z,18.06
2022-11-02T00:16:50.882Z,18.62
2022-11-02T00:19:09.181Z,19.37
2022-11-02T00:20:16.464Z,15.94
2022-11-02T00:21:25.221Z,19.80
2022-11-02T00:22:30.504Z,18.31
2022-11-02T00:23:35.915Z,20.06
2022-11-02T00:24:40.418Z,19.60
2022-11-02T00:25:47.293Z,18.69
2022-11-02T00:26:54.154Z,20.19
2022-11-02T00:27:58.579Z,17.75
2022-11-02T00:29:03.768Z,20.37
2022-11-02T00:30:16.336Z,19.19
2022-11-02T00:31:21.724Z,20.67
2022-11-02T00:32:26.625Z,19.73
2022-11-02T00:33:30.937Z,20.31
2022-11-02T00:34:35.765Z,17.62
2022-11-02T00:35:40.561Z,19.56
2022-11-02T00:36:46.267Z,21.40
2022-11-02T00:37:52.372Z,3.60
2022-11-02T00:38:56.388Z,19.50
2022-11-02T00:40:00.288Z,19.60
2022-11-02T00:41:04.338Z,19.00
2022-11-02T00:42:08.440Z,19.12
2022-11-02T00:43:13.963Z,20.75
2022-11-02T00:44:17.799Z,19.07
2022-11-02T00:45:21.767Z,19.00
2022-11-02T00:46:25.694Z,19.00
2022-11-02T00:47:29.585Z,19.50
2022-11-02T00:48:33.528Z,20.44
2022-11-02T00:49:37.627Z,19.94
2022-11-02T00:50:42.035Z,20.50
2022-11-02T00:51:47.416Z,21.12
2022-11-02T00:52:51.347Z,20.19
2022-11-02T00:54:00.083Z,20.00
2022-11-02T00:55:04.090Z,15.13
2022-11-02T00:56:08.629Z,19.75
2022-11-02T00:57:12.479Z,19.62
2022-11-02T00:58:16.337Z,20.75
2022-11-02T00:59:21.934Z,18.19
2022-11-02T01:00:25.901Z,20.81
2022-11-02T01:01:29.866Z,18.69
2022-11-02T01:02:36.014Z,19.87
2022-11-02T01:03:43.162Z,20.47
2022-11-02T01:04:48.726Z,19.00
2022-11-02T01:05:54.156Z,18.94
2022-11-02T01:06:58.163Z,14.75
2022-11-02T01:08:02.598Z,18.44
2022-11-02T01:09:08.226Z,20.56
2022-11-02T01:10:12.929Z,18.67
2022-11-02T01:11:19.816Z,17.00
2022-11-02T01:12:23.941Z,18.47
2022-11-02T01:13:28.696Z,16.31
2022-11-02T01:14:32.823Z,16.87
2022-11-02T01:15:37.960Z,18.87
2022-11-02T01:16:41.999Z,18.87
2022-11-02T01:17:45.962Z,18.94
2022-11-02T01:18:52.190Z,19.87
2022-11-02T01:19:57.662Z,17.06
2022-11-02T01:21:01.774Z,17.93
2022-11-02T01:22:06.275Z,18.37
2022-11-02T01:23:12.191Z,19.12
2022-11-02T01:24:17.539Z,18.75
2022-11-02T01:25:21.565Z,18.87
2022-11-02T01:26:25.572Z,18.69
2022-11-02T01:27:29.440Z,19.13
2022-11-02T01:28:33.859Z,17.31
2022-11-02T01:29:39.335Z,18.44
2022-11-02T01:30:43.331Z,18.44
2022-11-02T01:31:48.919Z,17.44
2022-11-02T01:32:54.423Z,18.37
2022-11-02T01:33:58.358Z,16.19
2022-11-02T01:35:02.272Z,18.47
2022-11-02T01:36:07.357Z,19.06
2022-11-02T01:37:11.502Z,19.62
2022-11-02T01:38:15.449Z,20.12
2022-11-02T01:39:23.493Z,18.44
2022-11-02T01:40:27.414Z,19.25
2022-11-02T01:41:31.448Z,20.69
2022-11-02T01:42:37.016Z,20.75
2022-11-02T01:43:45.830Z,17.44
2022-11-02T01:44:50.208Z,20.94
2022-11-02T01:45:59.679Z,19.37
2022-11-02T01:47:26.625Z,19.56
2022-11-02T01:48:45.670Z,19.37
2022-11-02T01:49:56.150Z,19.94
2022-11-02T01:51:02.972Z,18.75
2022-11-02T01:52:11.472Z,20.31
2022-11-02T01:53:18.445Z,20.37
2022-11-02T01:54:25.366Z,21.37
2022-11-02T01:55:32.261Z,22.47
2022-11-02T01:56:38.575Z,20.44
2022-11-02T01:57:48.292Z,20.56
2022-11-02T01:58:57.872Z,20.81
2022-11-02T02:00:10.913Z,18.75
2022-11-02T02:01:14.937Z,18.00
2022-11-02T02:02:25.645Z,23.00
2022-11-02T02:03:32.022Z,19.37
2022-11-02T02:04:37.260Z,21.37
2022-11-02T02:05:46.832Z,21.81
2022-11-02T02:06:54.057Z,20.44
2022-11-02T02:08:01.307Z,20.53
2022-11-02T02:09:08.101Z,21.56
2022-11-02T02:10:12.847Z,21.19
2022-11-02T02:11:28.430Z,20.37
2022-11-02T02:12:35.123Z,20.44
2022-11-02T02:13:39.047Z,21.69
2022-11-02T02:14:43.603Z,22.94
2022-11-02T02:16:00.856Z,21.19
2022-11-02T02:17:40.732Z,21.00
2022-11-02T02:18:50.347Z,22.62
2022-11-02T02:20:13.580Z,21.73
2022-11-02T02:21:41.572Z,23.07
2022-11-02T02:23:05.161Z,23.38
2022-11-02T02:24:28.174Z,20.56
2022-11-02T02:25:59.467Z,21.93
2022-11-02T02:27:21.443Z,23.00
2022-11-02T02:28:46.924Z,22.37
2022-11-02T02:30:11.781Z,21.07
2022-11-02T02:31:21.579Z,19.62
2022-11-02T02:32:56.847Z,22.25
2022-11-02T02:34:22.206Z,23.00
2022-11-02T02:35:43.891Z,22.13
2022-11-02T02:36:53.457Z,22.13
2022-11-02T02:38:00.396Z,22.56
2022-11-02T02:39:12.862Z,20.12
2022-11-02T02:40:25.508Z,14.56
2022-11-02T02:41:38.488Z,23.06
2022-11-02T02:42:54.187Z,22.67
2022-11-02T02:44:03.318Z,21.50
2022-11-02T02:45:35.887Z,22.25
2022-11-02T02:46:43.219Z,22.13
2022-11-02T02:47:50.176Z,22.53
2022-11-02T02:48:57.290Z,22.94
2022-11-02T02:50:07.190Z,21.94
2022-11-02T02:51:14.175Z,22.25
2022-11-02T02:52:20.880Z,23.25
2022-11-02T02:53:38.106Z,21.31
2022-11-02T02:54:45.051Z,22.00
2022-11-02T02:55:53.141Z,21.12
2022-11-02T02:57:01.701Z,21.50
2022-11-02T02:58:08.365Z,21.81
2022-11-02T02:59:23.862Z,23.75
2022-11-02T03:00:28.751Z,22.62
2022-11-02T03:01:34.146Z,21.75
2022-11-02T03:02:38.986Z,20.75
2022-11-02T03:03:44.175Z,22.19
2022-11-02T03:04:48.241Z,19.31
2022-11-02T03:06:07.354Z,20.50
2022-11-02T03:07:14.578Z,21.12
2022-11-02T03:08:18.519Z,20.56
2022-11-02T03:09:43.464Z,18.69
2022-11-02T03:10:53.067Z,20.25
2022-11-02T03:12:05.651Z,20.19
2022-11-02T03:13:36.719Z,22.56
2022-11-02T03:15:01.418Z,22.62
2022-11-02T03:16:27.213Z,22.69
2022-11-02T03:17:39.652Z,15.31
2022-11-02T03:18:55.361Z,18.94
2022-11-02T03:20:26.513Z,21.31
2022-11-02T03:21:42.355Z,19.31
2022-11-02T03:23:06.083Z,20.25
2022-11-02T03:24:15.566Z,20.12
2022-11-02T03:25:31.232Z,18.33
2022-11-02T03:26:58.901Z,19.94
2022-11-02T03:28:11.470Z,20.73
2022-11-02T03:29:21.111Z,19.25
2022-11-02T03:30:30.090Z,21.19
2022-11-02T03:31:42.688Z,20.93
2022-11-02T03:33:10.770Z,21.00
2022-11-02T03:34:29.635Z,16.50
2022-11-02T03:35:45.408Z,20.69
2022-11-02T03:38:20.152Z,19.81
2022-11-02T03:39:39.240Z,20.50
2022-11-02T03:40:47.808Z,22.81
2022-11-02T03:41:55.637Z,22.31
2022-11-02T03:43:02.185Z,17.31
2022-11-02T03:44:14.265Z,21.81
2022-11-02T03:45:21.194Z,19.50
2022-11-02T03:46:26.959Z,21.87
2022-11-02T03:47:33.927Z,22.75
2022-11-02T03:48:40.833Z,21.80
2022-11-02T03:49:46.880Z,19.06
2022-11-02T03:50:53.069Z,22.19
2022-11-02T03:51:59.967Z,21.33
2022-11-02T03:53:09.907Z,18.75
2022-11-02T03:54:16.775Z,17.56
2022-11-02T03:55:23.642Z,18.69
2022-11-02T03:56:33.859Z,20.25
2022-11-02T03:57:49.425Z,18.50
2022-11-02T03:58:53.359Z,21.62
2022-11-02T04:00:12.602Z,18.50
2022-11-02T04:01:18.757Z,21.06
2022-11-02T04:02:23.045Z,18.75
2022-11-02T04:03:32.640Z,19.62
2022-11-02T04:04:36.651Z,19.81
2022-11-02T04:05:40.508Z,20.19
2022-11-02T04:06:47.408Z,20.31
2022-11-02T04:07:58.359Z,18.62
2022-11-02T04:09:00.535Z,18.56
2022-11-02T04:10:04.709Z,18.07
2022-11-02T04:11:09.866Z,17.19
2022-11-02T04:12:13.763Z,18.75
2022-11-02T04:13:17.619Z,19.37
2022-11-02T04:14:21.557Z,18.31
2022-11-02T04:15:26.932Z,19.07
2022-11-02T04:16:33.247Z,22.31
2022-11-02T04:17:37.189Z,20.93
2022-11-02T04:18:41.125Z,21.25
2022-11-02T04:19:48.695Z,22.00
2022-11-02T04:20:53.006Z,21.06
2022-11-02T04:21:57.898Z,20.67
2022-11-02T04:23:01.837Z,20.56
2022-11-02T04:24:07.438Z,21.37
2022-11-02T04:25:16.865Z,22.06
2022-11-02T04:26:20.799Z,27.00
2022-11-02T04:27:26.177Z,24.33
2022-11-02T04:28:30.308Z,21.31
2022-11-02T04:29:34.165Z,17.25
2022-11-02T04:30:38.101Z,21.87
2022-11-02T04:31:43.665Z,20.25
2022-11-02T04:32:50.438Z,19.33
2022-11-02T04:33:54.481Z,19.12
2022-11-02T04:34:58.476Z,16.81
2022-11-02T04:36:04.391Z,17.87
2022-11-02T04:37:08.344Z,17.25
2022-11-02T04:38:12.252Z,11.25
2022-11-02T04:39:16.101Z,18.12
2022-11-02T04:40:22.532Z,17.62
2022-11-02T04:41:27.779Z,20.37
2022-11-02T04:42:31.687Z,18.37
2022-11-02T04:43:35.606Z,19.69
2022-11-02T04:44:39.449Z,22.00
2022-11-02T04:45:44.966Z,23.69
2022-11-02T04:46:50.506Z,22.69
2022-11-02T04:47:55.974Z,23.69
2022-11-02T04:48:59.897Z,23.56
2022-11-02T04:50:04.083Z,21.06
2022-11-02T04:51:07.985Z,21.19
2022-11-02T04:52:13.495Z,19.06
2022-11-02T04:53:20.144Z,18.37
2022-11-02T04:54:24.085Z,17.87
2022-11-02T04:55:28.509Z,13.56
2022-11-02T04:56:32.495Z,15.63
2022-11-02T04:57:36.600Z,18.37
2022-11-02T04:58:41.132Z,16.00
2022-11-02T04:59:46.542Z,18.53
2022-11-02T05:00:50.616Z,18.19
2022-11-02T05:01:56.145Z,19.94
2022-11-02T05:03:00.204Z,19.73
2022-11-02T05:04:04.249Z,20.69
2022-11-02T05:05:08.507Z,19.20
2022-11-02T05:06:18.839Z,18.25
2022-11-02T05:07:25.815Z,21.37
2022-11-02T05:08:28.616Z,24.56
2022-11-02T05:09:32.575Z,27.87
2022-11-02T05:10:38.079Z,29.44
2022-11-02T05:11:42.083Z,22.19
2022-11-02T05:12:46.056Z,20.31
2022-11-02T05:13:51.657Z,18.69
2022-11-02T05:14:57.335Z,21.00
2022-11-02T05:16:03.136Z,21.12
2022-11-02T05:17:07.161Z,20.37
2022-11-02T05:18:16.158Z,19.40
2022-11-02T05:19:17.246Z,20.25
2022-11-02T05:20:22.675Z,20.94
2022-11-02T05:21:33.881Z,23.07
2022-11-02T05:22:42.405Z,21.25
2022-11-02T05:23:47.600Z,23.07
2022-11-02T05:25:05.282Z,26.69
2022-11-02T05:26:12.424Z,23.81
2022-11-02T05:27:17.960Z,28.27
2022-11-02T05:28:24.022Z,23.81
2022-11-02T05:29:29.688Z,37.13
2022-11-02T05:30:35.388Z,25.12
2022-11-02T05:31:41.131Z,25.88
2022-11-02T05:32:48.914Z,23.81
2022-11-02T05:33:56.800Z,22.56
2022-11-02T05:35:00.773Z,24.25
2022-11-02T05:36:11.756Z,23.27
2022-11-02T05:40:05.585Z,22.69
2022-11-02T05:40:55.667Z,19.87
2022-11-02T05:42:00.766Z,21.40
2022-11-02T05:43:05.916Z,27.33
2022-11-02T05:44:09.436Z,24.37
2022-11-02T05:45:13.523Z,22.81
2022-11-02T05:46:20.669Z,21.19
2022-11-02T05:47:29.139Z,19.81
2022-11-02T05:48:36.378Z,20.07
2022-11-02T05:49:44.273Z,21.12
2022-11-02T05:50:49.657Z,22.06
2022-11-02T05:51:53.706Z,22.19
2022-11-02T05:53:00.376Z,21.73
2022-11-02T05:54:23.919Z,23.60
2022-11-02T05:55:22.422Z,22.93
2022-11-02T05:56:26.282Z,22.87
2022-11-02T05:57:30.296Z,22.50
2022-11-02T05:58:37.143Z,21.06
2022-11-02T05:59:45.144Z,23.19
2022-11-02T06:01:22.567Z,21.62
2022-11-02T06:01:59.586Z,20.44
2022-11-02T06:03:03.736Z,21.80
2022-11-02T06:04:21.064Z,24.00
2022-11-02T06:06:34.052Z,21.67
2022-11-02T06:07:51.725Z,20.56
2022-11-02T06:08:54.140Z,21.37
2022-11-02T06:09:59.462Z,7.37
2022-11-02T06:12:28.693Z,19.87
2022-11-02T06:13:38.328Z,23.87
2022-11-02T06:14:42.239Z,23.06
2022-11-02T06:16:17.509Z,20.75
2022-11-02T06:17:02.723Z,16.50
2022-11-02T06:18:11.229Z,22.87
2022-11-02T06:20:20.263Z,22.27
2022-11-02T06:21:27.203Z,24.56
2022-11-02T06:22:31.974Z,24.69
2022-11-02T06:24:31.203Z,23.87
2022-11-02T06:24:48.893Z,22.75
2022-11-02T06:27:08.264Z,25.44
2022-11-02T06:29:06.338Z,27.44
2022-11-02T06:29:11.440Z,24.80
2022-11-02T06:29:25.741Z,24.81
2022-11-02T06:30:29.734Z,26.53
2022-11-02T06:31:33.739Z,26.07
2022-11-02T06:32:41.438Z,25.88
2022-11-02T06:33:54.093Z,23.56
2022-11-02T06:34:57.417Z,24.13
2022-11-02T06:37:52.439Z,21.69
2022-11-02T06:38:45.746Z,20.56
2022-11-02T06:39:51.806Z,20.88
2022-11-02T06:41:03.196Z,21.19
2022-11-02T06:42:08.803Z,23.53
2022-11-02T06:43:17.415Z,22.19
2022-11-02T06:44:20.215Z,26.87
2022-11-02T06:45:25.248Z,26.53
2022-11-02T06:46:29.327Z,11.12
2022-11-02T06:47:38.918Z,25.00
2022-11-02T06:48:54.393Z,22.75
2022-11-02T06:49:56.783Z,22.67
2022-11-02T06:51:07.735Z,23.81
2022-11-02T06:52:13.202Z,24.00
2022-11-02T06:53:17.526Z,25.25
2022-11-02T06:54:21.428Z,29.53
2022-11-02T06:55:25.461Z,28.93
2022-11-02T06:56:29.408Z,32.50
2022-11-02T06:57:38.463Z,32.87
2022-11-02T06:58:42.549Z,33.07
2022-11-02T06:59:53.762Z,32.67
2022-11-02T07:01:05.172Z,31.60
2022-11-02T07:02:10.398Z,33.94
2022-11-02T07:03:14.318Z,33.06
2022-11-02T07:04:18.318Z,29.60
2022-11-02T07:05:23.571Z,32.73
2022-11-02T07:06:29.858Z,31.37
2022-11-02T07:07:33.797Z,32.25
2022-11-02T07:08:37.898Z,31.00
2022-11-02T07:09:41.797Z,29.80
2022-11-02T07:10:48.739Z,30.33
2022-11-02T07:11:53.441Z,29.00
2022-11-02T07:12:58.821Z,35.53
2022-11-02T07:14:02.776Z,38.31
2022-11-02T07:15:07.138Z,36.07
2022-11-02T07:16:12.273Z,34.27
2022-11-02T07:17:16.232Z,39.38
2022-11-02T07:18:20.529Z,38.88
2022-11-02T07:19:24.477Z,47.13
2022-11-02T07:20:28.586Z,33.67
2022-11-02T07:21:32.697Z,33.00
2022-11-02T07:22:39.645Z,31.56
2022-11-02T07:23:43.505Z,33.13
2022-11-02T07:24:49.921Z,37.73
2022-11-02T07:25:53.144Z,33.44
2022-11-02T07:26:57.232Z,33.75
2022-11-02T07:28:04.021Z,31.00
2022-11-02T07:29:08.085Z,31.56
2022-11-02T07:30:12.767Z,33.19
2022-11-02T07:31:30.722Z,36.00
2022-11-02T07:32:31.459Z,33.00
2022-11-02T07:33:35.409Z,32.13
2022-11-02T07:34:39.276Z,34.00
2022-11-02T07:35:45.258Z,41.67
2022-11-02T07:36:53.269Z,51.27
2022-11-02T07:37:59.654Z,40.40
2022-11-02T07:39:04.278Z,31.31
2022-11-02T07:40:12.425Z,27.19
2022-11-02T07:41:16.614Z,28.31
2022-11-02T07:42:24.523Z,26.12
2022-11-02T07:43:30.016Z,25.44
2022-11-02T07:44:35.558Z,25.69
2022-11-02T07:45:39.422Z,26.40
2022-11-02T07:46:43.337Z,24.50
2022-11-02T07:47:48.187Z,25.07
2022-11-02T07:48:53.885Z,26.93
2022-11-02T07:50:01.264Z,27.25
2022-11-02T07:51:04.153Z,26.13
2022-11-02T07:52:08.107Z,26.62
2022-11-02T07:53:13.260Z,25.73
2022-11-02T07:54:18.748Z,26.44
2022-11-02T07:55:25.756Z,24.50
2022-11-02T07:56:31.248Z,25.75
2022-11-02T07:57:35.181Z,25.69
2022-11-02T07:58:39.038Z,26.00
2022-11-02T07:59:42.887Z,26.81
2022-11-02T08:00:48.379Z,26.62
2022-11-02T08:01:52.381Z,24.81
2022-11-02T08:02:58.628Z,24.56
2022-11-02T08:04:02.510Z,26.00
2022-11-02T08:05:06.978Z,26.31
2022-11-02T08:06:11.212Z,27.19
2022-11-02T08:07:17.140Z,27.25
2022-11-02T08:08:23.047Z,28.19
2022-11-02T08:09:27.008Z,27.25
2022-11-02T08:10:37.086Z,27.13
2022-11-02T08:11:39.524Z,27.06
2022-11-02T08:12:43.816Z,27.50
2022-11-02T08:13:47.790Z,26.07
2022-11-02T08:14:54.733Z,26.37
2022-11-02T08:16:00.402Z,26.75
2022-11-02T08:17:06.235Z,26.25
2022-11-02T08:18:17.528Z,26.00
2022-11-02T08:19:22.697Z,25.37
2022-11-02T08:20:28.378Z,23.73
2022-11-02T08:21:33.815Z,24.87
2022-11-02T08:22:41.467Z,23.06
2022-11-02T08:23:48.377Z,25.19
2022-11-02T08:24:52.343Z,23.07
2022-11-02T08:25:59.103Z,26.37
2022-11-02T08:27:03.079Z,24.87
2022-11-02T08:28:09.764Z,26.37
2022-11-02T08:29:13.830Z,25.06
2022-11-02T08:30:19.469Z,24.12
2022-11-02T08:31:23.445Z,26.00
2022-11-02T08:32:27.303Z,21.81
2022-11-02T08:33:31.183Z,24.19
2022-11-02T08:34:35.027Z,22.81
2022-11-02T08:35:39.623Z,4.19
2022-11-02T08:36:45.063Z,22.50
2022-11-02T08:37:56.732Z,24.06
2022-11-02T08:39:33.237Z,22.44
2022-11-02T08:40:10.061Z,22.31
2022-11-02T08:41:14.021Z,25.00
2022-11-02T08:42:19.527Z,23.56
2022-11-02T08:43:23.610Z,25.50
2022-11-02T08:44:27.549Z,24.19
2022-11-02T08:46:00.585Z,27.00
2022-11-02T08:46:39.457Z,26.37
2022-11-02T08:47:43.420Z,25.50
2022-11-02T08:48:47.335Z,21.94
2022-11-02T08:49:51.313Z,23.00
2022-11-02T08:50:55.527Z,24.75
2022-11-02T08:52:01.122Z,24.31
2022-11-02T08:53:07.415Z,25.67
2022-11-02T08:54:12.928Z,25.13
2022-11-02T08:55:16.919Z,25.31
2022-11-02T08:56:25.052Z,25.25
2022-11-02T08:58:42.675Z,25.56
2022-11-02T08:59:14.084Z,24.63
2022-11-02T08:59:46.565Z,23.33
2022-11-02T09:00:53.517Z,24.56
2022-11-02T09:01:58.341Z,27.19
2022-11-02T09:03:25.036Z,26.81
2022-11-02T09:04:17.464Z,23.12
2022-11-02T09:05:24.483Z,23.81
2022-11-02T09:06:31.380Z,23.44
2022-11-02T09:07:37.551Z,23.81
2022-11-02T09:08:42.802Z,24.20
2022-11-02T09:09:46.720Z,26.75
2022-11-02T09:10:53.509Z,26.50
2022-11-02T09:11:57.676Z,26.12
2022-11-02T09:13:03.900Z,23.00
2022-11-02T09:14:09.734Z,25.56
2022-11-02T09:15:13.670Z,24.25
2022-11-02T09:16:19.227Z,27.44
2022-11-02T09:17:24.596Z,31.94
2022-11-02T09:18:30.589Z,28.38
2022-11-02T09:19:35.428Z,27.37
2022-11-02T09:20:39.547Z,26.06
2022-11-02T09:21:43.924Z,26.31
2022-11-02T09:22:48.321Z,25.81
2022-11-02T09:23:52.416Z,27.19
2022-11-02T09:24:56.318Z,24.87
2022-11-02T09:26:00.345Z,24.87
2022-11-02T09:27:06.406Z,37.25
2022-11-02T09:28:12.045Z,41.13
2022-11-02T09:29:16.019Z,31.53
2022-11-02T09:30:24.216Z,26.80
2022-11-02T09:31:28.238Z,25.31
2022-11-02T09:32:32.550Z,21.25
2022-11-02T09:33:36.482Z,30.94
2022-11-02T09:34:40.355Z,28.38
2022-11-02T09:35:49.348Z,27.31
2022-11-02T09:36:56.808Z,26.07
2022-11-02T09:38:00.857Z,28.81
2022-11-02T09:39:06.293Z,29.94
2022-11-02T09:40:12.516Z,30.13
2022-11-02T09:41:32.173Z,29.00
2022-11-02T09:43:10.528Z,29.00
2022-11-02T09:44:39.864Z,47.87
2022-11-02T09:45:58.245Z,38.56
2022-11-02T09:49:26.638Z,25.62
2022-11-02T09:51:06.414Z,23.94
2022-11-02T09:52:16.002Z,25.12
2022-11-02T09:53:22.051Z,26.06
2022-11-02T09:54:36.880Z,23.44
2022-11-02T09:55:45.452Z,23.69
2022-11-02T09:56:53.851Z,24.81
2022-11-02T09:58:02.589Z,22.13
2022-11-02T09:59:24.395Z,24.06
2022-11-02T10:00:31.426Z,23.38
2022-11-02T10:02:07.047Z,23.62
2022-11-02T10:03:31.741Z,22.37
2022-11-02T10:05:05.290Z,23.38
2022-11-02T10:06:35.284Z,25.00
2022-11-02T10:07:53.699Z,23.47
2022-11-02T10:09:04.873Z,24.50
2022-11-02T10:10:16.553Z,23.69
2022-11-02T10:11:44.821Z,24.07
2022-11-02T10:13:08.339Z,24.69
2022-11-02T10:14:22.887Z,24.12
2022-11-02T10:15:41.381Z,24.69
2022-11-02T10:16:58.816Z,23.62
2022-11-02T10:18:09.797Z,24.06
2022-11-02T10:20:45.908Z,23.31
2022-11-02T10:21:52.920Z,24.44
2022-11-02T10:23:02.963Z,23.60
2022-11-02T10:25:41.298Z,23.75
2022-11-02T10:26:49.432Z,24.19
2022-11-02T10:27:56.151Z,23.25
2022-11-02T10:29:11.330Z,24.56
2022-11-02T10:30:24.753Z,22.50
2022-11-02T10:31:33.909Z,23.50
2022-11-02T10:33:47.332Z,25.00
2022-11-02T10:36:16.839Z,23.25
2022-11-02T10:36:18.106Z,23.19
2022-11-02T10:37:32.222Z,23.06
2022-11-02T10:38:52.801Z,23.80
2022-11-02T10:40:22.194Z,24.75
2022-11-02T10:41:44.608Z,25.19
2022-11-02T10:42:58.307Z,25.44
2022-11-02T10:44:29.361Z,23.40
2022-11-02T10:46:00.167Z,22.33
2022-11-02T10:47:24.787Z,22.94
2022-11-02T10:49:08.912Z,9.00
2022-11-02T10:50:21.021Z,22.62
2022-11-02T10:51:24.872Z,23.50
2022-11-02T10:52:33.462Z,22.31
2022-11-02T10:53:41.749Z,23.19
2022-11-02T10:54:51.809Z,22.06
2022-11-02T10:56:16.802Z,22.94
2022-11-02T10:57:25.099Z,24.06
2022-11-02T10:58:33.886Z,22.13
2022-11-02T10:59:40.734Z,24.50
2022-11-02T11:00:46.688Z,22.87
2022-11-02T11:01:58.570Z,23.44
2022-11-02T11:03:11.133Z,22.44
2022-11-02T11:04:23.904Z,23.93
2022-11-02T11:05:27.875Z,24.12
2022-11-02T11:06:40.568Z,24.19
2022-11-02T11:07:45.077Z,24.69
2022-11-02T11:08:52.113Z,24.00
2022-11-02T11:09:57.852Z,23.94
2022-11-02T11:11:16.085Z,21.87
2022-11-02T11:12:31.974Z,23.62
2022-11-02T11:16:16.839Z,24.50
2022-11-02T11:19:52.021Z,23.38
2022-11-02T11:20:56.953Z,21.12
2022-11-02T11:22:03.976Z,20.19
2022-11-02T11:23:23.197Z,21.56
2022-11-02T11:24:33.746Z,22.87
2022-11-02T11:25:40.545Z,23.00
2022-11-02T11:26:45.892Z,21.12
2022-11-02T11:27:54.974Z,23.62
2022-11-02T11:28:59.013Z,22.37
2022-11-02T11:30:06.090Z,24.75
2022-11-02T11:31:21.249Z,20.44
2022-11-02T11:32:32.328Z,22.87
2022-11-02T11:33:45.168Z,22.50
2022-11-02T11:34:57.304Z,24.31
2022-11-02T11:36:02.081Z,21.56
2022-11-02T11:37:12.942Z,23.81
2022-11-02T11:38:21.642Z,25.56
2022-11-02T11:39:28.620Z,24.00
2022-11-02T11:40:38.367Z,21.94
2022-11-02T11:41:42.488Z,23.06
2022-11-02T11:42:48.108Z,23.31
2022-11-02T11:43:54.835Z,22.44
2022-11-02T11:45:16.676Z,22.93
2022-11-02T11:46:23.645Z,22.87
2022-11-02T11:47:33.828Z,22.81
2022-11-02T11:48:46.606Z,23.44
2022-11-02T11:50:10.510Z,21.81
2022-11-02T11:51:02.044Z,23.50
2022-11-02T11:52:07.790Z,21.50
2022-11-02T11:53:23.477Z,21.69
2022-11-02T11:54:31.392Z,18.94
2022-11-02T11:55:35.660Z,22.56
2022-11-02T11:56:41.486Z,23.44
2022-11-02T11:57:47.188Z,23.20
2022-11-02T11:58:52.823Z,22.37
2022-11-02T12:00:00.638Z,23.12
2022-11-02T12:01:16.808Z,22.37
2022-11-02T12:02:31.520Z,22.44
2022-11-02T12:04:00.161Z,21.25
2022-11-02T12:05:09.532Z,22.19
2022-11-02T12:06:36.770Z,21.62
2022-11-02T12:08:04.190Z,21.81
2022-11-02T12:09:19.704Z,22.00
2022-11-02T12:10:28.261Z,22.50
2022-11-02T12:11:53.297Z,21.56
2022-11-02T12:13:21.362Z,21.69
2022-11-02T12:15:06.856Z,21.40
2022-11-02T12:16:26.678Z,19.44
2022-11-02T12:17:54.363Z,21.81
2022-11-02T12:19:11.430Z,18.25
2022-11-02T12:20:35.030Z,21.00
2022-11-02T12:21:57.144Z,20.81
2022-11-02T12:23:07.124Z,20.50
2022-11-02T12:24:32.307Z,19.56
2022-11-02T12:25:54.019Z,21.56
2022-11-02T12:27:08.831Z,21.50
2022-11-02T12:28:39.444Z,21.75
2022-11-02T12:30:08.838Z,20.62
2022-11-02T12:31:21.721Z,20.06
2022-11-02T12:32:32.880Z,19.94
2022-11-02T12:33:42.663Z,20.50
2022-11-02T12:35:03.010Z,19.56
2022-11-02T12:36:10.136Z,20.44
2022-11-02T12:37:38.592Z,18.33
2022-11-02T12:38:36.402Z,20.94
2022-11-02T12:39:56.423Z,20.94
2022-11-02T12:41:19.805Z,17.56
2022-11-02T12:42:37.950Z,18.31
2022-11-02T12:43:55.951Z,20.37
2022-11-02T12:45:21.123Z,20.62
2022-11-02T12:46:48.654Z,20.25
2022-11-02T12:48:03.031Z,20.19
2022-11-02T12:49:36.248Z,21.69
2022-11-02T12:50:55.634Z,21.25
2022-11-02T12:52:08.320Z,21.37
2022-11-02T12:53:30.035Z,22.19
2022-11-02T12:54:41.735Z,22.06
2022-11-02T12:55:48.893Z,24.06
2022-11-02T12:56:57.101Z,23.25
2022-11-02T12:58:07.862Z,22.37
2022-11-02T12:59:26.401Z,23.19
2022-11-02T13:00:35.651Z,22.13
2022-11-02T13:01:43.702Z,21.56
2022-11-02T13:03:08.095Z,22.00
2022-11-02T13:04:18.311Z,24.19
2022-11-02T13:05:32.097Z,22.69
2022-11-02T13:06:44.497Z,22.94
2022-11-02T13:08:00.805Z,22.62
2022-11-02T13:09:15.033Z,21.75
2022-11-02T13:10:24.538Z,22.00
2022-11-02T13:11:43.114Z,21.56
2022-11-02T13:12:54.595Z,21.62
2022-11-02T13:14:01.620Z,20.75
2022-11-02T13:15:11.812Z,22.06
2022-11-02T13:16:19.493Z,20.37
2022-11-02T13:17:29.531Z,19.69
2022-11-02T13:18:41.998Z,17.50
2022-11-02T13:19:57.810Z,21.44
2022-11-02T13:21:04.712Z,21.31
2022-11-02T13:22:11.619Z,19.44
2022-11-02T13:23:25.542Z,15.81
2022-11-02T13:24:34.200Z,18.00
2022-11-02T13:25:52.478Z,13.56
2022-11-02T13:27:13.871Z,21.56
2022-11-02T13:28:18.854Z,19.56
2022-11-02T13:29:39.340Z,20.00
2022-11-02T13:30:48.339Z,19.62
2022-11-02T13:31:59.574Z,16.44
2022-11-02T13:33:15.858Z,20.31
2022-11-02T13:34:36.384Z,19.25
2022-11-02T13:35:41.103Z,19.25
2022-11-02T13:36:45.856Z,21.00
2022-11-02T13:37:54.417Z,20.94
2022-11-02T13:39:09.802Z,17.69
2022-11-02T13:40:23.765Z,18.44
2022-11-02T13:41:44.014Z,20.94
2022-11-02T13:43:12.181Z,16.19
2022-11-02T13:44:50.160Z,18.87
2022-11-02T13:46:10.549Z,20.19
2022-11-02T13:47:34.304Z,14.38
2022-11-02T13:48:50.173Z,20.62
2022-11-02T13:49:56.453Z,21.00
2022-11-02T13:51:03.409Z,21.50
2022-11-02T13:52:13.891Z,21.73
2022-11-02T13:53:37.064Z,21.69
2022-11-02T13:54:48.657Z,21.37
2022-11-02T13:55:55.710Z,19.75
2022-11-02T13:56:59.929Z,21.69
2022-11-02T13:58:20.929Z,18.75
2022-11-02T13:59:22.128Z,20.62
2022-11-02T14:01:56.659Z,21.75
2022-11-02T14:03:18.627Z,22.19
2022-11-02T14:04:23.383Z,21.94
2022-11-02T14:05:39.232Z,21.75
2022-11-02T14:06:48.889Z,22.75
2022-11-02T14:07:54.197Z,22.13
2022-11-02T14:09:04.879Z,22.69
2022-11-02T14:10:11.830Z,23.40
2022-11-02T14:11:20.514Z,21.94
2022-11-02T14:12:27.952Z,21.56
2022-11-02T14:13:51.128Z,22.75
2022-11-02T14:15:16.211Z,21.60
2022-11-02T14:16:42.875Z,21.37
2022-11-02T14:18:01.039Z,22.56
2022-11-02T14:19:27.041Z,21.60
2022-11-02T14:20:42.969Z,22.00
2022-11-02T14:21:52.597Z,23.12
2022-11-02T14:23:16.084Z,22.50
2022-11-02T14:24:40.832Z,24.19
2022-11-02T14:25:50.193Z,24.12
2022-11-02T14:26:59.335Z,21.62
2022-11-02T14:28:13.579Z,22.44
2022-11-02T14:29:46.472Z,24.27
2022-11-02T14:31:19.218Z,24.50
2022-11-02T14:32:45.959Z,23.62
2022-11-02T14:34:09.138Z,24.50
2022-11-02T14:35:36.944Z,22.62
2022-11-02T14:36:46.968Z,22.75
2022-11-02T14:38:08.976Z,19.94
2022-11-02T14:39:30.630Z,20.69
2022-11-02T14:41:04.864Z,23.07
2022-11-02T14:42:26.644Z,22.62
2022-11-02T14:43:50.083Z,22.37
2022-11-02T14:45:09.108Z,22.50
2022-11-02T14:46:30.246Z,20.44
2022-11-02T14:47:40.086Z,24.06
2022-11-02T14:48:49.849Z,21.87
2022-11-02T14:50:12.698Z,21.75
2022-11-02T14:51:22.738Z,22.69
2022-11-02T14:52:32.681Z,24.73
2022-11-02T14:53:38.277Z,21.50
2022-11-02T14:54:51.394Z,21.69
2022-11-02T14:55:57.821Z,23.00
2022-11-02T14:57:04.896Z,23.38
2022-11-02T14:58:18.613Z,23.50
2022-11-02T14:59:38.071Z,23.19
2022-11-02T15:01:00.727Z,22.67
2022-11-02T15:02:21.908Z,24.94
2022-11-02T15:03:30.429Z,27.06
2022-11-02T15:04:36.796Z,24.56
2022-11-02T15:05:42.835Z,23.19
2022-11-02T15:06:54.129Z,25.62
2022-11-02T15:08:08.796Z,25.00
2022-11-02T15:09:12.805Z,24.37
2022-11-02T15:11:53.253Z,24.69
2022-11-02T15:12:00.596Z,24.63
2022-11-02T15:13:25.121Z,24.73
2022-11-02T15:14:43.385Z,27.00
2022-11-02T15:16:00.347Z,28.06
2022-11-02T15:17:19.167Z,28.50
2022-11-02T15:18:36.450Z,26.87
2022-11-02T15:19:46.970Z,21.73
2022-11-02T15:21:16.120Z,24.37
2022-11-02T15:22:37.014Z,26.56
2022-11-02T15:24:01.117Z,25.37